createdAt,value
2018-07-30T00:00:06.647Z,546.40
2018-07-30T00:02:39.591Z,543.50
2018-07-30T00:05:08.005Z,543.50
2018-07-30T00:07:35.208Z,548.17
2018-07-30T00:10:02.407Z,548.40
2018-07-30T00:12:29.628Z,541.30
2018-07-30T00:14:56.819Z,547.97
2018-07-30T00:17:24.023Z,544.57
2018-07-30T00:19:51.238Z,542.43
2018-07-30T00:22:18.423Z,541.13
2018-07-30T00:24:45.615Z,544.17
2018-07-30T00:27:12.815Z,544.17
2018-07-30T00:29:40.023Z,549.30
2018-07-30T00:32:07.320Z,543.63
2018-07-30T00:34:34.600Z,549.47
2018-07-30T00:37:01.804Z,545.00
2018-07-30T00:39:29.005Z,541.17
2018-07-30T00:41:56.205Z,541.13
2018-07-30T00:44:23.411Z,542.77
2018-07-30T00:46:50.625Z,541.27
2018-07-30T00:49:17.818Z,547.03
2018-07-30T00:51:45.046Z,542.30
2018-07-30T00:54:12.248Z,540.10
2018-07-30T00:56:39.462Z,541.80
2018-07-30T00:59:06.658Z,543.97
2018-07-30T01:01:44.763Z,539.63
2018-07-30T01:04:11.984Z,546.83
2018-07-30T01:06:39.219Z,544.07
2018-07-30T01:09:07.024Z,545.93
2018-07-30T01:11:34.243Z,540.73
2018-07-30T01:14:01.452Z,544.57
2018-07-30T01:16:28.767Z,545.53
2018-07-30T01:18:55.970Z,548.37
2018-07-30T01:21:23.187Z,541.10
2018-07-30T01:23:50.403Z,546.43
2018-07-30T01:26:23.271Z,542.30
2018-07-30T01:28:50.623Z,545.80
2018-07-30T01:31:17.834Z,544.43
2018-07-30T01:33:45.036Z,544.17
2018-07-30T01:36:12.258Z,546.40
2018-07-30T01:38:39.454Z,548.03
2018-07-30T01:41:06.669Z,544.10
2018-07-30T01:43:34.037Z,544.93
2018-07-30T01:46:01.821Z,542.03
2018-07-30T01:48:29.381Z,543.87
2018-07-30T01:50:56.626Z,542.83
2018-07-30T01:53:23.831Z,545.23
2018-07-30T01:55:51.056Z,539.43
2018-07-30T01:58:18.261Z,542.30
2018-07-30T02:00:45.614Z,540.57
2018-07-30T02:03:12.830Z,541.23
2018-07-30T02:05:40.012Z,542.27
2018-07-30T02:08:07.228Z,541.63
2018-07-30T02:10:34.436Z,543.87
2018-07-30T02:13:01.643Z,541.27
2018-07-30T02:15:28.859Z,543.13
2018-07-30T02:17:56.062Z,543.23
2018-07-30T02:20:23.243Z,541.13
2018-07-30T02:22:50.435Z,542.83
2018-07-30T02:25:17.639Z,539.37
2018-07-30T02:27:44.874Z,539.87
2018-07-30T02:30:12.088Z,538.37
2018-07-30T02:32:39.326Z,543.30
2018-07-30T02:35:07.237Z,539.40
2018-07-30T02:37:34.501Z,538.30
2018-07-30T02:40:01.700Z,535.50
2018-07-30T02:42:28.939Z,542.93
2018-07-30T02:44:56.276Z,535.47
2018-07-30T02:47:23.588Z,548.33
2018-07-30T02:49:50.779Z,547.43
2018-07-30T02:52:18.087Z,542.10
2018-07-30T02:54:45.275Z,540.60
2018-07-30T02:57:12.495Z,541.90
2018-07-30T02:59:39.726Z,541.03
2018-07-30T03:02:06.945Z,1629.53
2018-07-30T03:04:34.191Z,538.33
2018-07-30T03:07:01.407Z,1904.27
2018-07-30T03:09:28.670Z,538.37
2018-07-30T03:11:55.835Z,540.67
2018-07-30T03:14:23.071Z,1585.77
2018-07-30T03:16:50.274Z,703.30
2018-07-30T03:19:17.507Z,662.27
2018-07-30T03:21:44.683Z,667.57
2018-07-30T03:24:11.894Z,665.87
2018-07-30T03:26:39.087Z,668.97
2018-07-30T03:29:06.326Z,666.70
2018-07-30T03:31:33.659Z,665.40
2018-07-30T03:34:00.871Z,662.67
2018-07-30T03:36:28.080Z,664.47
2018-07-30T03:38:55.303Z,670.37
2018-07-30T03:41:22.515Z,672.40
2018-07-30T03:43:49.728Z,665.97
2018-07-30T03:46:16.954Z,664.10
2018-07-30T03:48:44.143Z,665.17
2018-07-30T03:51:11.359Z,661.20
2018-07-30T03:53:38.567Z,670.17
2018-07-30T03:56:06.218Z,665.60
2018-07-30T03:58:35.293Z,663.80
2018-07-30T04:01:02.564Z,671.00
2018-07-30T04:03:29.783Z,670.40
2018-07-30T04:05:56.992Z,665.50
2018-07-30T04:08:24.199Z,666.93
2018-07-30T04:10:51.420Z,670.07
2018-07-30T04:13:18.622Z,667.23
2018-07-30T04:15:45.822Z,668.90
2018-07-30T04:18:13.014Z,667.87
2018-07-30T04:20:40.199Z,668.33
2018-07-30T04:23:07.390Z,663.73
2018-07-30T04:25:34.707Z,665.47
2018-07-30T04:28:01.890Z,671.63
2018-07-30T04:30:29.089Z,666.93
2018-07-30T04:32:56.321Z,667.57
2018-07-30T04:35:23.603Z,668.63
2018-07-30T04:37:50.824Z,671.80
2018-07-30T04:40:18.035Z,665.53
2018-07-30T04:42:45.271Z,665.30
2018-07-30T04:45:12.491Z,664.57
2018-07-30T04:47:39.707Z,855.70
2018-07-30T04:50:06.939Z,1999.90
2018-07-30T04:52:34.211Z,1999.90
2018-07-30T04:55:01.403Z,1999.90
2018-07-30T04:57:28.633Z,825.77
2018-07-30T04:59:55.847Z,826.23
2018-07-30T05:02:23.075Z,816.77
2018-07-30T05:04:50.286Z,827.20
2018-07-30T05:07:17.475Z,830.93
2018-07-30T05:09:44.671Z,826.93
2018-07-30T05:12:11.860Z,835.33
2018-07-30T05:14:39.070Z,842.57
2018-07-30T05:17:06.583Z,852.70
2018-07-30T05:19:33.812Z,858.93
2018-07-30T05:22:01.012Z,883.07
2018-07-30T05:24:28.220Z,855.10
2018-07-30T05:26:55.406Z,884.47
2018-07-30T05:29:22.595Z,874.63
2018-07-30T05:31:49.811Z,865.33
2018-07-30T05:34:17.017Z,875.73
2018-07-30T05:36:44.221Z,874.43
2018-07-30T05:39:11.551Z,876.80
2018-07-30T05:41:39.235Z,876.97
2018-07-30T05:44:06.600Z,849.33
2018-07-30T05:46:33.796Z,856.73
2018-07-30T05:49:01.048Z,897.33
2018-07-30T05:51:28.236Z,891.13
2018-07-30T05:53:55.428Z,879.97
2018-07-30T05:56:22.639Z,900.10
2018-07-30T05:58:49.815Z,846.70
2018-07-30T06:01:17.025Z,887.03
2018-07-30T06:03:44.232Z,849.30
2018-07-30T06:06:11.445Z,816.27
2018-07-30T06:08:38.667Z,813.87
2018-07-30T06:11:05.888Z,817.30
2018-07-30T06:13:33.119Z,809.50
2018-07-30T06:16:00.312Z,805.63
2018-07-30T06:18:27.667Z,803.33
2018-07-30T06:20:54.892Z,804.10
2018-07-30T06:23:22.086Z,808.67
2018-07-30T06:25:49.283Z,810.67
2018-07-30T06:28:16.513Z,820.37
2018-07-30T06:30:43.734Z,816.83
2018-07-30T06:33:10.939Z,827.40
2018-07-30T06:35:38.131Z,811.80
2018-07-30T06:38:05.350Z,815.60
2018-07-30T06:40:32.543Z,802.43
2018-07-30T06:42:59.763Z,799.50
2018-07-30T06:45:26.954Z,798.40
2018-07-30T06:47:54.160Z,803.30
2018-07-30T06:50:21.345Z,814.43
2018-07-30T06:52:48.552Z,822.13
2018-07-30T06:55:15.735Z,809.23
2018-07-30T06:57:42.952Z,817.23
2018-07-30T07:00:10.576Z,816.00
2018-07-30T07:02:38.043Z,809.33
2018-07-30T07:05:06.029Z,813.27
2018-07-30T07:07:33.212Z,1999.90
2018-07-30T07:10:00.480Z,1999.90
2018-07-30T07:12:27.667Z,1999.90
2018-07-30T07:14:54.855Z,1999.90
2018-07-30T07:17:22.057Z,1999.90
2018-07-30T07:19:49.239Z,1999.90
2018-07-30T07:22:16.447Z,1999.90
2018-07-30T07:24:43.644Z,1999.90
2018-07-30T07:27:10.927Z,1364.73
2018-07-30T07:29:38.080Z,1264.27
2018-07-30T07:32:05.631Z,1825.70
2018-07-30T07:34:32.938Z,1168.67
2018-07-30T07:37:00.148Z,1685.47
2018-07-30T07:39:27.351Z,1064.90
2018-07-30T07:41:54.551Z,1141.43
2018-07-30T07:44:21.743Z,1153.47
2018-07-30T07:46:48.943Z,1106.80
2018-07-30T07:49:16.186Z,1999.90
2018-07-30T07:51:43.401Z,1999.90
2018-07-30T07:54:10.711Z,1733.17
2018-07-30T07:56:37.922Z,1999.90
2018-07-30T07:59:05.191Z,1999.90
2018-07-30T08:01:32.428Z,1422.47
2018-07-30T08:03:59.702Z,1999.90
2018-07-30T08:06:26.863Z,1999.90
2018-07-30T08:08:54.109Z,1999.90
2018-07-30T08:11:21.317Z,1999.90
2018-07-30T08:13:48.524Z,1999.90
2018-07-30T08:16:15.778Z,1999.90
2018-07-30T08:18:42.949Z,1999.90
2018-07-30T08:21:10.168Z,1999.90
2018-07-30T08:23:37.375Z,1999.90
2018-07-30T08:26:04.591Z,1999.90
2018-07-30T08:28:31.788Z,1240.57
2018-07-30T08:30:59.021Z,1223.90
2018-07-30T08:33:26.231Z,1999.90
2018-07-30T08:35:53.444Z,1999.90
2018-07-30T08:38:20.658Z,1322.33
2018-07-30T08:40:47.864Z,1311.40
2018-07-30T08:43:15.141Z,1332.27
2018-07-30T08:45:42.431Z,1325.83
2018-07-30T08:48:09.976Z,1325.00
2018-07-30T08:50:37.179Z,1326.07
2018-07-30T08:53:04.412Z,1317.43
2018-07-30T08:55:31.652Z,1432.27
2018-07-30T08:57:58.867Z,1314.30
2018-07-30T09:00:26.071Z,1290.47
2018-07-30T09:02:53.321Z,1225.63
2018-07-30T09:05:20.527Z,1238.53
2018-07-30T09:07:47.731Z,1253.17
2018-07-30T09:10:14.959Z,1222.67
2018-07-30T09:12:42.261Z,1151.60
2018-07-30T09:15:09.431Z,1200.70
2018-07-30T09:17:36.639Z,1246.83
2018-07-30T09:20:04.373Z,1190.20
2018-07-30T09:22:31.567Z,1181.60
2018-07-30T09:24:58.783Z,1159.03
2018-07-30T09:27:25.984Z,1099.57
2018-07-30T09:29:53.190Z,1162.07
2018-07-30T09:32:20.428Z,1167.20
2018-07-30T09:34:47.844Z,1087.13
2018-07-30T09:37:15.079Z,1067.20
2018-07-30T09:39:42.435Z,1135.30
2018-07-30T09:42:09.524Z,1081.77
2018-07-30T09:44:36.856Z,1156.40
2018-07-30T09:47:04.021Z,1152.73
2018-07-30T09:49:31.199Z,952.65
2018-07-30T09:51:58.426Z,964.27
2018-07-30T09:54:25.620Z,974.87
2018-07-30T09:56:52.842Z,953.40
2018-07-30T09:59:20.031Z,955.83
2018-07-30T10:01:47.219Z,966.77
2018-07-30T10:04:14.414Z,949.35
2018-07-30T10:06:41.606Z,967.80
2018-07-30T10:09:09.844Z,955.43
2018-07-30T10:11:37.486Z,967.30
2018-07-30T10:14:04.867Z,965.27
2018-07-30T10:16:32.062Z,956.20
2018-07-30T10:18:59.267Z,951.75
2018-07-30T10:21:26.460Z,928.25
2018-07-30T10:23:53.675Z,919.92
2018-07-30T10:26:20.895Z,945.80
2018-07-30T10:28:48.079Z,946.78
2018-07-30T10:31:15.294Z,952.30
2018-07-30T10:33:42.489Z,949.20
2018-07-30T10:36:09.698Z,1028.28
2018-07-30T10:38:36.899Z,949.42
2018-07-30T10:41:04.092Z,955.45
2018-07-30T10:43:31.295Z,1003.55
2018-07-30T10:45:58.490Z,928.92
2018-07-30T10:48:25.671Z,949.77
2018-07-30T10:50:53.643Z,932.77
2018-07-30T10:53:20.995Z,926.88
2018-07-30T10:55:48.200Z,915.60
2018-07-30T10:58:15.391Z,939.90
2018-07-30T11:00:42.663Z,905.67
2018-07-30T11:03:09.867Z,912.10
2018-07-30T11:05:37.088Z,916.07
2018-07-30T11:08:04.303Z,917.23
2018-07-30T11:10:31.503Z,903.50
2018-07-30T11:12:58.706Z,930.57
2018-07-30T11:15:25.892Z,927.30
2018-07-30T11:17:53.088Z,929.57
2018-07-30T11:20:20.296Z,921.05
2018-07-30T11:22:47.487Z,924.27
2018-07-30T11:25:14.737Z,915.17
2018-07-30T11:27:41.919Z,948.83
2018-07-30T11:30:09.171Z,933.90
2018-07-30T11:32:36.375Z,933.65
2018-07-30T11:35:03.652Z,943.85
2018-07-30T11:37:30.865Z,938.20
2018-07-30T11:39:58.078Z,942.20
2018-07-30T11:42:25.296Z,934.83
2018-07-30T11:44:52.575Z,952.58
2018-07-30T11:47:19.766Z,950.17
2018-07-30T11:49:46.966Z,926.00
2018-07-30T11:52:14.175Z,935.92
2018-07-30T11:54:41.377Z,919.48
2018-07-30T11:57:08.592Z,958.70
2018-07-30T11:59:35.802Z,941.25
2018-07-30T12:02:03.038Z,947.95
2018-07-30T12:04:30.235Z,918.90
2018-07-30T12:06:57.550Z,938.75
2018-07-30T12:09:24.739Z,937.42
2018-07-30T12:11:51.942Z,925.58
2018-07-30T12:14:19.118Z,937.45
2018-07-30T12:16:46.320Z,927.45
2018-07-30T12:19:13.515Z,928.67
2018-07-30T12:21:40.792Z,936.20
2018-07-30T12:24:07.989Z,934.58
2018-07-30T12:26:35.248Z,929.13
2018-07-30T12:29:02.479Z,942.77
2018-07-30T12:31:29.674Z,949.85
2018-07-30T12:33:56.871Z,911.33
2018-07-30T12:36:24.086Z,927.70
2018-07-30T12:38:51.295Z,910.90
2018-07-30T12:41:18.502Z,927.40
2018-07-30T12:43:45.683Z,908.02
2018-07-30T12:46:12.875Z,943.05
2018-07-30T12:48:40.064Z,929.95
2018-07-30T12:51:07.414Z,935.33
2018-07-30T12:53:34.606Z,940.25
2018-07-30T12:56:01.935Z,946.08
2018-07-30T12:58:29.215Z,944.67
2018-07-30T13:00:56.433Z,944.80
2018-07-30T13:03:23.644Z,928.05
2018-07-30T13:05:50.834Z,956.15
2018-07-30T13:08:18.059Z,957.65
2018-07-30T13:10:45.253Z,944.50
2018-07-30T13:13:12.535Z,919.35
2018-07-30T13:15:39.734Z,917.35
2018-07-30T13:18:07.351Z,891.53
2018-07-30T13:20:34.561Z,905.55
2018-07-30T13:23:01.748Z,929.85
2018-07-30T13:25:28.975Z,920.50
2018-07-30T13:27:56.175Z,918.50
2018-07-30T13:30:23.376Z,924.42
2018-07-30T13:32:50.810Z,934.17
2018-07-30T13:35:18.015Z,933.40
2018-07-30T13:37:45.330Z,917.68
2018-07-30T13:40:12.531Z,931.17
2018-07-30T13:42:39.799Z,926.70
2018-07-30T13:45:07.071Z,922.65
2018-07-30T13:47:34.427Z,967.25
2018-07-30T13:50:01.685Z,936.70
2018-07-30T13:52:28.895Z,910.43
2018-07-30T13:54:56.110Z,932.30
2018-07-30T13:57:23.332Z,912.18
2018-07-30T13:59:50.543Z,907.47
2018-07-30T14:02:17.726Z,937.42
2018-07-30T14:04:44.994Z,920.75
2018-07-30T14:07:12.184Z,917.40
2018-07-30T14:09:39.403Z,922.52
2018-07-30T14:12:06.616Z,904.75
2018-07-30T14:14:33.827Z,900.20
2018-07-30T14:17:01.028Z,913.40
2018-07-30T14:19:28.235Z,931.08
2018-07-30T14:21:55.443Z,918.20
2018-07-30T14:24:22.675Z,917.85
2018-07-30T14:26:49.867Z,900.00
2018-07-30T14:29:17.051Z,922.00
2018-07-30T14:31:44.251Z,910.95
2018-07-30T14:34:11.460Z,936.82
2018-07-30T14:36:38.677Z,880.98
2018-07-30T14:39:07.506Z,922.33
2018-07-30T14:41:34.719Z,911.90
2018-07-30T14:44:01.941Z,922.67
2018-07-30T14:46:29.172Z,938.27
2018-07-30T14:48:56.395Z,910.87
2018-07-30T14:51:23.627Z,932.17
2018-07-30T14:53:50.827Z,920.63
2018-07-30T14:56:18.068Z,922.07
2018-07-30T14:58:45.264Z,925.85
2018-07-30T15:01:12.482Z,908.03
2018-07-30T15:03:39.686Z,933.37
2018-07-30T15:06:06.907Z,908.83
2018-07-30T15:08:34.112Z,907.00
2018-07-30T15:11:01.315Z,905.80
2018-07-30T15:13:28.784Z,900.73
2018-07-30T15:15:55.990Z,919.23
2018-07-30T15:18:23.198Z,896.13
2018-07-30T15:20:50.391Z,905.03
2018-07-30T15:23:17.602Z,915.40
2018-07-30T15:25:44.826Z,922.90
2018-07-30T15:28:12.026Z,888.73
2018-07-30T15:30:39.260Z,923.37
2018-07-30T15:33:06.463Z,917.27
2018-07-30T15:35:33.650Z,907.90
2018-07-30T15:38:00.855Z,903.97
2018-07-30T15:40:28.077Z,893.03
2018-07-30T15:42:55.267Z,904.27
2018-07-30T15:45:22.470Z,913.27
2018-07-30T15:47:49.659Z,930.03
2018-07-30T15:50:16.847Z,900.47
2018-07-30T15:52:44.039Z,878.97
2018-07-30T15:55:11.266Z,886.50
2018-07-30T15:57:38.474Z,873.47
2018-07-30T16:00:06.625Z,887.37
2018-07-30T16:02:33.825Z,896.53
2018-07-30T16:07:28.200Z,879.90
2018-07-30T16:09:55.391Z,887.47
2018-07-30T16:12:22.607Z,889.33
2018-07-30T16:14:49.805Z,889.87
2018-07-30T16:17:16.982Z,883.13
2018-07-30T16:19:44.158Z,869.60
2018-07-30T16:22:11.343Z,863.07
2018-07-30T16:24:38.547Z,865.50
2018-07-30T16:27:05.968Z,862.13
2018-07-30T16:29:33.183Z,867.70
2018-07-30T16:32:00.416Z,878.57
2018-07-30T16:34:28.012Z,844.57
2018-07-30T16:36:55.203Z,832.80
2018-07-30T16:39:22.418Z,883.67
2018-07-30T16:41:49.610Z,856.70
2018-07-30T16:44:16.842Z,850.27
2018-07-30T16:46:44.088Z,881.47
2018-07-30T16:49:11.283Z,858.03
2018-07-30T16:51:38.478Z,860.23
2018-07-30T16:54:05.707Z,851.27
2018-07-30T16:56:32.915Z,864.33
2018-07-30T16:59:00.139Z,870.70
2018-07-30T17:01:27.356Z,857.83
2018-07-30T17:03:54.575Z,851.07
2018-07-30T17:06:21.772Z,864.73
2018-07-30T17:08:48.995Z,855.37
2018-07-30T17:11:16.223Z,852.47
2018-07-30T17:13:43.451Z,882.13
2018-07-30T17:16:10.747Z,848.80
2018-07-30T17:18:38.260Z,836.67
2018-07-30T17:21:05.718Z,821.50
2018-07-30T17:23:32.924Z,838.67
2018-07-30T17:26:00.124Z,847.67
2018-07-30T17:28:27.318Z,830.70
2018-07-30T17:30:54.511Z,829.43
2018-07-30T17:33:21.718Z,835.10
2018-07-30T17:35:48.910Z,825.30
2018-07-30T17:38:16.107Z,836.13
2018-07-30T17:40:43.295Z,788.83
2018-07-30T17:43:10.522Z,823.60
2018-07-30T17:45:37.960Z,808.10
2018-07-30T17:48:05.399Z,811.53
2018-07-30T17:50:32.823Z,809.63
2018-07-30T17:53:00.112Z,794.37
2018-07-30T17:55:27.299Z,781.40
2018-07-30T17:57:54.602Z,813.13
2018-07-30T18:00:21.854Z,768.10
2018-07-30T18:02:49.085Z,806.50
2018-07-30T18:05:18.392Z,768.53
2018-07-30T18:07:46.478Z,782.10
2018-07-30T18:10:13.703Z,730.57
2018-07-30T18:12:41.315Z,732.93
2018-07-30T18:15:08.632Z,718.03
2018-07-30T18:17:35.975Z,698.93
2018-07-30T18:20:03.311Z,718.10
2018-07-30T18:22:30.531Z,722.27
2018-07-30T18:24:57.828Z,702.40
2018-07-30T18:27:25.136Z,666.33
2018-07-30T18:29:52.348Z,664.60
2018-07-30T18:32:19.544Z,657.80
2018-07-30T18:34:46.842Z,666.57
2018-07-30T18:37:14.056Z,658.97
2018-07-30T18:39:41.313Z,636.33
2018-07-30T18:42:08.538Z,631.00
2018-07-30T18:44:35.774Z,633.13
2018-07-30T18:47:03.121Z,644.33
2018-07-30T18:49:30.336Z,638.93
2018-07-30T18:51:57.598Z,668.00
2018-07-30T18:54:24.918Z,617.97
2018-07-30T18:56:52.217Z,606.17
2018-07-30T18:59:19.387Z,609.50
2018-07-30T19:01:46.646Z,623.33
2018-07-30T19:04:14.022Z,602.87
2018-07-30T19:06:41.264Z,619.57
2018-07-30T19:09:09.043Z,634.90
2018-07-30T19:11:36.384Z,589.80
2018-07-30T19:14:03.600Z,603.73
2018-07-30T19:16:30.836Z,600.90
2018-07-30T19:18:58.151Z,592.67
2018-07-30T19:21:25.456Z,594.40
2018-07-30T19:23:52.692Z,595.23
2018-07-30T19:26:19.933Z,594.40
2018-07-30T19:28:47.133Z,599.20
2018-07-30T19:31:14.442Z,593.83
2018-07-30T19:33:41.635Z,592.27
2018-07-30T19:36:08.869Z,583.40
2018-07-30T19:38:36.220Z,585.83
2018-07-30T19:41:03.487Z,590.10
2018-07-30T19:43:30.903Z,587.77
2018-07-30T19:45:58.088Z,585.80
2018-07-30T19:48:25.332Z,587.03
2018-07-30T19:50:52.570Z,594.43
2018-07-30T19:53:19.787Z,587.30
2018-07-30T19:55:47.148Z,590.23
2018-07-30T19:58:14.692Z,586.90
2018-07-30T20:00:41.836Z,584.57
2018-07-30T20:03:10.168Z,586.20
2018-07-30T20:05:37.371Z,584.97
2018-07-30T20:08:04.657Z,578.43
2018-07-30T20:10:31.892Z,583.40
2018-07-30T20:12:59.239Z,586.27
2018-07-30T20:15:26.515Z,580.70
2018-07-30T20:17:53.917Z,584.57
2018-07-30T20:20:21.279Z,581.93
2018-07-30T20:22:48.601Z,581.37
2018-07-30T20:25:15.938Z,582.20
2018-07-30T20:27:43.531Z,577.07
2018-07-30T20:30:10.892Z,577.80
2018-07-30T20:32:38.113Z,577.57
2018-07-30T20:35:05.459Z,578.67
2018-07-30T20:37:32.768Z,582.10
2018-07-30T20:40:00.057Z,579.97
2018-07-30T20:42:27.284Z,581.90
2018-07-30T20:44:54.570Z,585.93
2018-07-30T20:47:21.854Z,584.63
2018-07-30T20:49:49.107Z,584.50
2018-07-30T20:52:16.445Z,577.80
2018-07-30T20:54:43.751Z,580.30
2018-07-30T20:57:11.134Z,588.23
2018-07-30T20:59:38.440Z,576.97
2018-07-30T21:02:06.444Z,584.77
2018-07-30T21:04:33.722Z,578.60
2018-07-30T21:07:00.860Z,581.87
2018-07-30T21:09:28.047Z,577.73
2018-07-30T21:11:55.240Z,575.13
2018-07-30T21:14:22.532Z,581.43
2018-07-30T21:16:49.734Z,576.53
2018-07-30T21:19:16.943Z,577.10
2018-07-30T21:21:44.147Z,580.03
2018-07-30T21:24:11.359Z,571.97
2018-07-30T21:26:38.576Z,579.23
2018-07-30T21:29:05.755Z,576.90
2018-07-30T21:31:32.968Z,575.80
2018-07-30T21:34:00.166Z,578.47
2018-07-30T21:36:27.370Z,575.00
2018-07-30T21:38:54.592Z,571.87
2018-07-30T21:41:21.799Z,574.87
2018-07-30T21:43:48.998Z,572.17
2018-07-30T21:46:16.174Z,578.07
2018-07-30T21:48:43.368Z,573.93
2018-07-30T21:51:10.572Z,576.47
2018-07-30T21:53:37.775Z,570.73
2018-07-30T21:56:05.379Z,581.57
2018-07-30T21:58:32.577Z,579.37
2018-07-30T22:00:59.814Z,576.23
2018-07-30T22:03:27.198Z,573.60
2018-07-30T22:05:56.839Z,574.20
2018-07-30T22:08:24.175Z,576.33
2018-07-30T22:10:51.387Z,574.50
2018-07-30T22:13:18.620Z,569.17
2018-07-30T22:15:46.034Z,571.67
2018-07-30T22:18:13.304Z,575.30
2018-07-30T22:20:40.519Z,570.70
2018-07-30T22:23:07.789Z,570.60
2018-07-30T22:25:34.995Z,572.93
2018-07-30T22:28:02.195Z,571.83
2018-07-30T22:30:29.403Z,575.30
2018-07-30T22:32:56.607Z,580.17
2018-07-30T22:35:23.825Z,573.67
2018-07-30T22:37:51.027Z,571.30
2018-07-30T22:40:18.227Z,578.70
2018-07-30T22:42:45.418Z,569.83
2018-07-30T22:45:12.635Z,571.70
2018-07-30T22:47:39.929Z,571.13
2018-07-30T22:50:07.136Z,574.57
2018-07-30T22:52:34.333Z,575.77
2018-07-30T22:55:01.695Z,576.93
2018-07-30T22:57:28.879Z,579.00
2018-07-30T22:59:56.092Z,569.53
2018-07-30T23:02:23.304Z,580.27
2018-07-30T23:04:50.491Z,574.80
2018-07-30T23:07:17.690Z,568.50
2018-07-30T23:09:44.895Z,573.63
2018-07-30T23:12:12.079Z,569.13
2018-07-30T23:14:39.280Z,571.73
2018-07-30T23:17:07.143Z,570.63
2018-07-30T23:19:34.379Z,566.80
2018-07-30T23:22:01.571Z,571.40
2018-07-30T23:24:28.743Z,567.73
2018-07-30T23:26:55.951Z,571.17
2018-07-30T23:29:23.159Z,566.50
2018-07-30T23:31:50.377Z,573.13
2018-07-30T23:34:17.559Z,573.60
2018-07-30T23:36:44.803Z,570.60
2018-07-30T23:39:11.959Z,572.37
2018-07-30T23:41:39.319Z,575.60
2018-07-30T23:44:06.698Z,572.07
2018-07-30T23:46:33.912Z,571.80
2018-07-30T23:49:01.143Z,565.70
2018-07-30T23:51:28.575Z,570.57
2018-07-30T23:53:55.844Z,571.07
2018-07-30T23:56:23.014Z,568.50
2018-07-30T23:58:50.211Z,568.67
